createdAt,value
2019-04-14T00:01:54.428Z,102839.02
2019-04-14T00:04:27.194Z,102830.31
2019-04-14T00:06:59.198Z,102829.47
2019-04-14T00:09:31.491Z,102830.77
2019-04-14T00:12:06.294Z,102825.98
2019-04-14T00:14:36.572Z,102827.28
2019-04-14T00:17:08.740Z,102827.28
2019-04-14T00:19:39.891Z,102832.50
2019-04-14T00:22:11.654Z,102825.10
2019-04-14T00:24:44.571Z,102830.77
2019-04-14T00:27:15.591Z,102836.86
2019-04-14T00:29:47.850Z,102834.26
2019-04-14T00:32:22.583Z,102832.02
2019-04-14T00:35:08.238Z,102833.77
2019-04-14T00:37:59.389Z,102837.29
2019-04-14T00:40:32.922Z,102835.53
2019-04-14T00:43:15.650Z,102836.41
2019-04-14T00:45:53.069Z,102837.74
2019-04-14T00:48:24.154Z,102839.47
2019-04-14T00:50:56.286Z,102844.30
2019-04-14T00:53:27.507Z,102838.20
2019-04-14T00:55:59.532Z,102839.08
2019-04-14T00:58:30.762Z,102840.84
2019-04-14T01:01:02.731Z,102837.80
2019-04-14T01:03:35.205Z,102837.80
2019-04-14T01:06:07.540Z,102836.11
2019-04-14T01:08:38.601Z,102845.27
2019-04-14T01:11:09.664Z,102842.66
2019-04-14T01:13:41.782Z,102844.47
2019-04-14T01:16:20.175Z,102844.09
2019-04-14T01:18:49.331Z,102840.70
2019-04-14T01:21:21.792Z,102842.92
2019-04-14T01:23:52.817Z,102843.82
2019-04-14T01:26:24.653Z,102839.47
2019-04-14T01:28:56.763Z,102844.70
2019-04-14T01:31:27.790Z,102844.70
2019-04-14T01:33:59.840Z,102845.11
2019-04-14T01:36:31.954Z,102848.14
2019-04-14T01:39:03.079Z,102844.63
2019-04-14T01:41:34.699Z,102849.83
2019-04-14T01:44:06.845Z,102848.08
2019-04-14T01:46:39.021Z,102844.56
2019-04-14T01:49:10.068Z,102845.84
2019-04-14T01:51:42.613Z,102851.46
2019-04-14T01:54:15.188Z,102846.67
2019-04-14T01:56:53.708Z,102846.23
2019-04-14T01:59:24.669Z,102844.89
2019-04-14T02:01:56.941Z,102849.66
2019-04-14T02:04:28.872Z,102845.72
2019-04-14T02:06:59.802Z,102846.99
2019-04-14T02:09:31.608Z,102846.08
2019-04-14T02:12:03.759Z,102846.05
2019-04-14T02:14:34.825Z,102840.38
2019-04-14T02:17:06.450Z,102850.33
2019-04-14T02:19:41.709Z,102843.81
2019-04-14T02:22:13.714Z,102852.05
2019-04-14T02:24:45.985Z,102855.93
2019-04-14T02:27:16.967Z,102848.53
2019-04-14T02:29:47.903Z,102846.77
2019-04-14T02:32:49.489Z,102849.77
2019-04-14T02:35:22.775Z,102851.50
2019-04-14T02:37:58.971Z,102855.83
2019-04-14T02:40:34.798Z,102858.39
2019-04-14T02:43:04.048Z,102861.42
2019-04-14T02:45:40.241Z,102868.78
2019-04-14T02:50:32.640Z,102864.41
2019-04-14T02:53:27.134Z,102875.26
2019-04-14T02:55:42.511Z,102867.90
2019-04-14T02:58:19.592Z,102871.34
2019-04-14T03:00:50.827Z,102869.63
2019-04-14T03:03:27.864Z,102877.87
2019-04-14T03:06:02.941Z,102874.41
2019-04-14T03:08:26.034Z,102872.69
2019-04-14T03:10:55.807Z,102874.84
2019-04-14T03:13:36.951Z,102871.81
2019-04-14T03:16:02.170Z,102875.76
2019-04-14T03:18:48.407Z,102875.76
2019-04-14T03:26:54.463Z,102877.52
2019-04-14T03:29:43.398Z,102884.92
2019-04-14T03:34:39.174Z,102888.41
2019-04-14T03:42:21.256Z,102893.58
2019-04-14T03:44:48.628Z,102892.66
2019-04-14T03:47:25.590Z,102891.40
2019-04-14T03:49:56.423Z,102893.12
2019-04-14T03:52:31.991Z,102897.07
2019-04-14T03:54:50.090Z,102890.55
2019-04-14T03:57:08.236Z,102894.92
2019-04-14T03:59:39.303Z,102900.14
2019-04-14T04:02:10.247Z,102889.25
2019-04-14T04:04:42.270Z,102889.25
2019-04-14T04:07:13.487Z,102899.33
2019-04-14T04:09:46.026Z,102904.55
2019-04-14T04:12:18.164Z,102905.43
2019-04-14T04:14:49.135Z,102908.50
2019-04-14T04:17:27.691Z,102908.56
2019-04-14T04:20:06.718Z,102910.80
2019-04-14T04:22:43.448Z,102911.31
2019-04-14T04:25:16.235Z,102908.02
2019-04-14T04:27:52.619Z,102915.18
2019-04-14T04:30:28.098Z,102916.22
2019-04-14T04:33:13.314Z,102913.30
2019-04-14T04:35:45.829Z,102919.06
2019-04-14T04:38:31.284Z,102919.06
2019-04-14T04:41:02.271Z,102928.20
2019-04-14T04:43:34.072Z,102930.34
2019-04-14T04:46:05.111Z,102929.88
2019-04-14T04:48:37.119Z,102932.86
2019-04-14T04:51:09.224Z,102934.98
2019-04-14T04:53:40.317Z,102931.80
2019-04-14T04:56:12.183Z,102927.33
2019-04-14T04:58:43.501Z,102930.69
2019-04-14T05:01:14.548Z,102931.83
2019-04-14T05:03:45.582Z,102932.90
2019-04-14T05:06:42.164Z,102928.34
2019-04-14T05:09:27.514Z,102932.86
2019-04-14T05:12:19.593Z,102942.04
2019-04-14T05:14:55.064Z,102938.96
2019-04-14T05:17:27.763Z,102945.54
2019-04-14T05:19:58.682Z,102946.11
2019-04-14T05:22:29.576Z,102946.08
2019-04-14T05:25:01.589Z,102955.77
2019-04-14T05:27:32.542Z,102955.84
2019-04-14T05:30:04.727Z,102952.22
2019-04-14T05:32:36.942Z,102954.74
2019-04-14T05:35:09.508Z,102957.12
2019-04-14T05:37:40.640Z,102959.49
2019-04-14T05:40:12.767Z,102967.23
2019-04-14T05:42:45.081Z,102964.16
2019-04-14T05:45:16.221Z,102961.17
2019-04-14T05:47:48.518Z,102968.99
2019-04-14T05:50:20.329Z,102969.73
2019-04-14T05:52:51.532Z,102967.31
2019-04-14T05:55:24.201Z,102967.31
2019-04-14T05:57:56.705Z,102965.52
2019-04-14T06:00:28.252Z,102969.67
2019-04-14T06:03:02.040Z,102962.84
2019-04-14T06:05:34.018Z,102968.02
2019-04-14T06:08:05.172Z,102970.58
2019-04-14T06:10:36.316Z,102973.98
2019-04-14T06:13:07.249Z,102976.33
2019-04-14T06:15:38.238Z,102973.88
2019-04-14T06:18:09.241Z,102985.77
2019-04-14T06:20:40.299Z,102985.97
2019-04-14T06:23:11.369Z,102993.24
2019-04-14T06:25:43.508Z,102986.16
2019-04-14T06:28:14.454Z,102991.80
2019-04-14T06:31:05.214Z,102996.55
2019-04-14T06:33:40.517Z,102990.03
2019-04-14T06:36:29.490Z,102995.42
2019-04-14T06:39:02.203Z,102995.97
2019-04-14T06:41:36.148Z,102992.42
2019-04-14T06:44:07.321Z,103003.52
2019-04-14T06:46:38.415Z,102997.60
2019-04-14T06:49:09.473Z,103001.73
2019-04-14T06:51:41.221Z,102996.00
2019-04-14T06:54:12.369Z,102998.33
2019-04-14T06:56:44.289Z,103000.05
2019-04-14T06:59:15.349Z,103004.98
2019-04-14T07:01:48.877Z,103005.53
2019-04-14T07:04:19.977Z,103008.98
2019-04-14T07:06:51.463Z,103011.40
2019-04-14T07:09:22.951Z,103004.48
2019-04-14T07:11:55.024Z,103004.96
2019-04-14T07:14:26.164Z,103006.38
2019-04-14T07:16:57.129Z,103011.70
2019-04-14T07:19:28.137Z,103022.77
2019-04-14T07:21:59.208Z,103024.92
2019-04-14T07:24:30.171Z,103025.23
2019-04-14T07:27:02.041Z,103023.73
2019-04-14T07:29:37.333Z,103023.77
2019-04-14T07:32:26.150Z,103029.04
2019-04-14T07:35:07.805Z,103026.06
2019-04-14T07:37:40.373Z,103027.70
2019-04-14T07:40:12.995Z,103023.92
2019-04-14T07:42:46.469Z,103017.09
2019-04-14T07:45:18.999Z,103021.59
2019-04-14T07:47:57.509Z,103031.83
2019-04-14T07:50:36.178Z,103026.21
2019-04-14T07:53:21.492Z,103030.63
2019-04-14T07:55:54.063Z,103032.09
2019-04-14T07:58:33.428Z,103034.55
2019-04-14T08:01:09.770Z,103035.42
2019-04-14T08:03:58.414Z,103037.25
2019-04-14T08:06:29.367Z,103036.06
2019-04-14T08:09:00.455Z,103040.69
2019-04-14T08:11:31.432Z,103041.41
2019-04-14T08:14:02.483Z,103046.95
2019-04-14T08:16:33.469Z,103040.53
2019-04-14T08:19:04.431Z,103038.27
2019-04-14T08:21:35.371Z,103046.66
2019-04-14T08:24:06.327Z,103039.58
2019-04-14T08:26:37.320Z,103040.09
2019-04-14T08:29:11.401Z,103044.13
2019-04-14T08:31:42.308Z,103034.70
2019-04-14T08:34:13.378Z,103052.16
2019-04-14T08:36:44.384Z,103044.05
2019-04-14T08:39:15.459Z,103036.74
2019-04-14T08:41:48.082Z,103042.89
2019-04-14T08:44:24.442Z,103037.37
2019-04-14T08:47:02.976Z,103039.93
2019-04-14T08:49:41.556Z,103033.27
2019-04-14T08:52:14.119Z,103033.15
2019-04-14T08:54:47.515Z,103035.64
2019-04-14T08:57:32.293Z,103041.31
2019-04-14T09:00:06.049Z,103046.30
2019-04-14T09:03:05.352Z,103046.11
2019-04-14T09:05:43.897Z,103048.08
2019-04-14T09:08:16.448Z,103048.78
2019-04-14T09:11:04.146Z,103045.78
2019-04-14T09:13:35.155Z,103057.65
2019-04-14T09:16:07.083Z,103045.36
2019-04-14T09:18:39.219Z,103047.92
2019-04-14T09:21:10.200Z,103056.23
2019-04-14T09:23:41.148Z,103053.26
2019-04-14T09:26:12.203Z,103062.88
2019-04-14T09:28:43.105Z,103059.06
2019-04-14T09:31:14.972Z,103065.83
2019-04-14T09:33:46.054Z,103057.11
2019-04-14T09:36:17.133Z,103059.17
2019-04-14T09:38:48.170Z,103067.10
2019-04-14T09:41:19.224Z,103066.39
2019-04-14T09:43:50.315Z,103067.74
2019-04-14T09:46:22.569Z,103074.86
2019-04-14T09:48:53.575Z,103067.81
2019-04-14T09:51:24.592Z,103077.59
2019-04-14T09:53:55.538Z,103072.45
2019-04-14T09:56:28.214Z,103076.21
2019-04-14T09:58:59.902Z,103075.80
2019-04-14T10:01:33.810Z,103075.95
2019-04-14T10:04:04.920Z,103078.55
2019-04-14T10:06:35.995Z,103065.33
2019-04-14T10:09:07.715Z,103065.74
2019-04-14T10:11:48.611Z,103073.11
2019-04-14T10:14:11.576Z,103073.95
2019-04-14T10:16:43.550Z,103072.30
2019-04-14T10:19:14.497Z,103071.79
2019-04-14T10:21:45.585Z,103072.67
2019-04-14T10:24:16.605Z,103066.49
2019-04-14T10:26:47.643Z,103072.12
2019-04-14T10:29:18.674Z,103072.16
2019-04-14T10:31:50.630Z,103078.38
2019-04-14T10:34:21.705Z,103076.21
2019-04-14T10:36:52.649Z,103081.25
2019-04-14T10:39:23.609Z,103084.56
2019-04-14T10:41:54.639Z,103084.35
2019-04-14T10:44:25.563Z,103081.78
2019-04-14T10:46:57.502Z,103095.91
2019-04-14T10:49:28.523Z,103083.81
2019-04-14T10:51:59.541Z,103094.59
2019-04-14T10:54:30.464Z,103090.30
2019-04-14T10:57:02.193Z,103079.93
2019-04-14T10:59:33.049Z,103086.69
2019-04-14T11:02:05.064Z,103083.44
2019-04-14T11:04:35.982Z,103085.00
2019-04-14T11:07:11.636Z,103096.13
2019-04-14T11:09:42.621Z,103087.31
2019-04-14T11:12:13.618Z,103086.22
2019-04-14T11:14:45.076Z,103083.66
2019-04-14T11:17:17.066Z,103087.50
2019-04-14T11:19:48.118Z,103087.94
2019-04-14T11:22:19.149Z,103077.13
2019-04-14T11:24:50.058Z,103080.52
2019-04-14T11:27:22.724Z,103077.56
2019-04-14T11:29:54.117Z,103088.19
2019-04-14T11:32:30.817Z,103083.31
2019-04-14T11:35:03.396Z,103085.34
2019-04-14T11:37:48.066Z,103072.00
2019-04-14T11:40:24.467Z,103079.55
2019-04-14T11:42:55.479Z,103088.50
2019-04-14T11:45:26.431Z,103090.67
2019-04-14T11:47:57.465Z,103089.09
2019-04-14T11:50:28.385Z,103081.02
2019-04-14T11:52:59.294Z,103090.80
2019-04-14T11:55:30.830Z,103090.73
2019-04-14T11:58:02.963Z,103092.55
2019-04-14T12:00:41.391Z,103094.18
2019-04-14T12:03:16.555Z,103091.11
2019-04-14T12:06:00.434Z,103096.34
2019-04-14T12:08:33.240Z,103102.16
2019-04-14T12:11:04.425Z,103106.78
2019-04-14T12:13:35.534Z,103112.25
2019-04-14T12:16:07.054Z,103107.42
2019-04-14T12:18:39.128Z,103112.41
2019-04-14T12:21:10.038Z,103111.66
2019-04-14T12:23:41.024Z,103119.64
2019-04-14T12:26:11.927Z,103130.27
2019-04-14T12:28:42.998Z,103113.91
2019-04-14T12:31:19.611Z,103118.97
2019-04-14T12:33:50.541Z,103126.64
2019-04-14T12:36:21.653Z,103126.15
2019-04-14T12:38:52.573Z,103128.30
2019-04-14T12:41:26.571Z,103131.28
2019-04-14T12:43:59.364Z,103124.96
2019-04-14T12:46:31.934Z,103126.69
2019-04-14T12:49:08.100Z,103127.98
2019-04-14T12:51:55.705Z,103119.95
2019-04-14T12:54:27.608Z,103146.32
2019-04-14T12:56:58.530Z,103128.03
2019-04-14T12:59:30.524Z,103123.59
2019-04-14T13:02:11.980Z,103140.70
2019-04-14T13:04:43.936Z,103126.36
2019-04-14T13:07:14.856Z,103122.92
2019-04-14T13:09:48.070Z,103129.00
2019-04-14T13:12:18.998Z,103126.58
2019-04-14T13:14:50.056Z,103119.12
2019-04-14T13:17:21.030Z,103141.47
2019-04-14T13:19:52.255Z,103124.70
2019-04-14T13:22:33.351Z,103125.27
2019-04-14T13:24:55.911Z,103113.27
2019-04-14T13:27:26.919Z,103131.80
2019-04-14T13:29:58.006Z,103140.55
2019-04-14T13:32:35.811Z,103131.31
2019-04-14T13:35:01.972Z,103117.73
2019-04-14T13:37:32.869Z,103116.95
2019-04-14T13:40:05.744Z,103112.48
2019-04-14T13:42:36.665Z,103114.64
2019-04-14T13:45:07.835Z,103117.34
2019-04-14T13:47:38.765Z,103115.03
2019-04-14T13:50:10.547Z,103104.44
2019-04-14T13:52:47.170Z,103103.02
2019-04-14T13:55:14.564Z,103087.56
2019-04-14T13:57:47.007Z,103086.68
2019-04-14T14:00:21.523Z,103100.89
2019-04-14T14:02:52.469Z,103089.83
2019-04-14T14:05:24.227Z,103078.89
2019-04-14T14:07:55.125Z,103096.17
2019-04-14T14:10:26.100Z,103090.73
2019-04-14T14:13:12.181Z,103086.38
2019-04-14T14:15:47.587Z,103091.56
2019-04-14T14:18:26.351Z,103097.39
2019-04-14T14:21:02.830Z,103089.70
2019-04-14T14:23:38.418Z,103087.87
2019-04-14T14:26:11.025Z,103085.59
2019-04-14T14:28:41.963Z,103083.80
2019-04-14T14:31:12.983Z,103090.86
2019-04-14T14:33:45.348Z,103093.09
2019-04-14T14:36:16.649Z,103091.75
2019-04-14T14:38:50.702Z,103095.84
2019-04-14T14:41:21.704Z,103108.13
2019-04-14T14:43:52.688Z,103090.21
2019-04-14T14:46:28.094Z,103095.39
2019-04-14T14:49:16.764Z,103085.29
2019-04-14T14:52:00.284Z,103114.68
2019-04-14T14:54:31.213Z,103083.56
2019-04-14T14:57:02.123Z,103084.51
2019-04-14T14:59:33.009Z,103082.30
2019-04-14T15:02:03.989Z,103100.34
2019-04-14T15:04:34.874Z,103088.44
2019-04-14T15:07:06.678Z,103083.62
2019-04-14T15:09:37.574Z,103091.74
2019-04-14T15:12:10.159Z,103087.58
2019-04-14T15:14:41.143Z,103093.88
2019-04-14T15:17:12.162Z,103089.86
2019-04-14T15:19:43.929Z,103087.65
2019-04-14T15:22:15.853Z,103099.48
2019-04-14T15:24:46.857Z,103085.06
2019-04-14T15:27:19.273Z,103090.37
2019-04-14T15:29:50.227Z,103103.45
2019-04-14T15:32:21.257Z,103093.86
2019-04-14T15:34:52.279Z,103095.12
2019-04-14T15:37:25.683Z,103096.98
2019-04-14T15:39:57.176Z,103100.43
2019-04-14T15:42:28.252Z,103093.95
2019-04-14T15:44:59.254Z,103091.70
2019-04-14T15:47:30.198Z,103092.53
2019-04-14T15:50:01.190Z,103088.24
2019-04-14T15:52:32.242Z,103097.13
2019-04-14T15:55:03.324Z,103091.07
2019-04-14T15:57:35.919Z,103088.52
2019-04-14T16:00:16.124Z,103105.98
2019-04-14T16:02:52.498Z,103140.17
2019-04-14T16:05:25.093Z,103088.89
2019-04-14T16:08:02.340Z,103086.77
2019-04-14T16:10:46.849Z,103083.27
2019-04-14T16:13:20.641Z,103094.29
2019-04-14T16:15:53.222Z,103087.33
2019-04-14T16:18:41.067Z,103100.09
2019-04-14T16:21:11.977Z,103086.55
2019-04-14T16:23:50.300Z,103090.98
2019-04-14T16:26:26.948Z,103092.72
2019-04-14T16:29:11.805Z,103102.84
2019-04-14T16:31:47.322Z,103101.08
2019-04-14T16:34:19.925Z,103088.82
2019-04-14T16:36:52.304Z,103086.61
2019-04-14T16:39:23.328Z,103087.48
2019-04-14T16:41:54.246Z,103101.95
2019-04-14T16:44:25.202Z,103094.11
2019-04-14T16:46:56.123Z,103093.31
2019-04-14T16:49:27.094Z,103088.06
2019-04-14T16:52:02.442Z,103095.93
2019-04-14T16:54:35.850Z,103088.51
2019-04-14T16:57:17.346Z,103085.91
2019-04-14T16:59:48.371Z,103086.39
2019-04-14T17:02:19.363Z,103089.88
2019-04-14T17:04:50.317Z,103092.50
2019-04-14T17:07:21.239Z,103089.02
2019-04-14T17:09:53.906Z,103090.78
2019-04-14T17:12:24.857Z,103093.00
2019-04-14T17:15:00.166Z,103092.58
2019-04-14T17:17:48.806Z,103085.58
2019-04-14T17:20:21.470Z,103091.31
2019-04-14T17:22:54.042Z,103100.52
2019-04-14T17:25:30.212Z,103100.06
2019-04-14T17:28:14.668Z,103096.61
2019-04-14T17:30:47.235Z,103103.13
2019-04-14T17:33:38.061Z,103104.02
2019-04-14T17:36:13.596Z,103110.58
2019-04-14T17:38:49.095Z,103107.53
2019-04-14T17:41:28.524Z,103111.00
2019-04-14T17:44:10.034Z,103108.83
2019-04-14T17:46:59.004Z,103111.47
2019-04-14T17:49:31.543Z,103111.90
2019-04-14T17:52:20.213Z,103122.83
2019-04-14T17:55:04.756Z,103117.15
2019-04-14T17:57:51.406Z,103127.17
2019-04-14T18:00:39.968Z,103124.58
2019-04-14T18:03:18.516Z,103121.52
2019-04-14T18:05:58.642Z,103128.06
2019-04-14T18:08:31.235Z,103125.00
2019-04-14T18:11:03.750Z,103122.38
2019-04-14T18:13:37.150Z,103135.47
2019-04-14T18:16:21.531Z,103134.63
2019-04-14T18:19:00.324Z,103131.98
2019-04-14T18:21:31.220Z,103138.97
2019-04-14T18:24:02.635Z,103135.49
2019-04-14T18:26:33.796Z,103140.73
2019-04-14T18:29:23.564Z,103138.97
2019-04-14T18:31:56.108Z,103138.09
2019-04-14T18:34:40.846Z,103146.83
2019-04-14T18:37:13.385Z,103137.65
2019-04-14T18:39:45.966Z,103140.72
2019-04-14T18:42:18.495Z,103146.40
2019-04-14T18:45:08.095Z,103145.50
2019-04-14T18:47:46.430Z,103151.65
2019-04-14T18:50:35.065Z,103150.75
2019-04-14T18:53:23.727Z,103145.09
2019-04-14T18:55:56.306Z,103155.56
2019-04-14T18:58:35.010Z,103156.84
2019-04-14T19:01:07.576Z,103163.41
2019-04-14T19:03:38.482Z,103162.53
2019-04-14T19:06:11.069Z,103148.55
2019-04-14T19:08:41.955Z,103149.89
2019-04-14T19:11:16.523Z,103155.98
2019-04-14T19:13:52.012Z,103155.55
2019-04-14T19:16:39.635Z,103151.63
2019-04-14T19:19:10.648Z,103157.29
2019-04-14T19:21:41.780Z,103160.37
2019-04-14T19:24:12.876Z,103161.66
2019-04-14T19:26:43.992Z,103162.97
2019-04-14T19:29:14.933Z,103154.24
2019-04-14T19:31:45.936Z,103157.29
2019-04-14T19:34:16.870Z,103162.09
2019-04-14T19:36:47.816Z,103168.20
2019-04-14T19:39:18.820Z,103165.14
2019-04-14T19:41:49.774Z,103161.20
2019-04-14T19:44:20.742Z,103168.20
2019-04-14T19:47:02.634Z,103164.72
2019-04-14T19:49:33.949Z,103164.73
2019-04-14T19:52:04.985Z,103172.14
2019-04-14T19:54:36.140Z,103175.17
2019-04-14T19:57:07.236Z,103174.75
2019-04-14T19:59:38.339Z,103170.39
2019-04-14T20:02:09.459Z,103171.25
2019-04-14T20:04:41.868Z,103174.72
2019-04-14T20:07:16.012Z,103177.78
2019-04-14T20:09:47.114Z,103172.97
2019-04-14T20:12:18.258Z,103173.86
2019-04-14T20:14:49.461Z,103178.67
2019-04-14T20:17:30.842Z,103179.95
2019-04-14T20:20:06.554Z,103183.02
2019-04-14T20:22:51.207Z,103179.54
2019-04-14T20:25:40.162Z,103181.72
2019-04-14T20:28:27.839Z,103186.50
2019-04-14T20:31:00.475Z,103183.46
2019-04-14T20:33:31.586Z,103182.59
2019-04-14T20:36:05.350Z,103181.70
2019-04-14T20:38:36.336Z,103179.95
2019-04-14T20:41:07.530Z,103176.89
2019-04-14T20:43:38.542Z,103177.80
2019-04-14T20:46:09.560Z,103183.91
2019-04-14T20:48:40.663Z,103184.36
2019-04-14T20:51:14.120Z,103189.14
2019-04-14T20:53:45.266Z,103187.84
2019-04-14T20:56:16.437Z,103182.61
2019-04-14T20:58:47.642Z,103187.39
2019-04-14T21:01:19.425Z,103190.45
2019-04-14T21:03:54.868Z,103191.31
2019-04-14T21:06:28.411Z,103185.20
2019-04-14T21:09:02.794Z,103193.05
2019-04-14T21:11:35.553Z,103195.66
2019-04-14T21:14:27.010Z,103194.77
2019-04-14T21:17:02.694Z,103195.62
2019-04-14T21:19:51.635Z,103199.06
2019-04-14T21:22:30.250Z,103204.27
2019-04-14T21:25:20.914Z,103202.45
2019-04-14T21:28:07.220Z,103206.72
2019-04-14T21:30:45.552Z,103200.56
2019-04-14T21:33:18.178Z,103201.85
2019-04-14T21:35:50.717Z,103205.29
2019-04-14T21:38:23.298Z,103209.16
2019-04-14T21:40:57.782Z,103209.13
2019-04-14T21:43:28.725Z,103204.29
2019-04-14T21:45:59.622Z,103202.03
2019-04-14T21:48:30.547Z,103200.66
2019-04-14T21:51:01.446Z,103207.20
2019-04-14T21:53:33.326Z,103209.77
2019-04-14T21:56:13.326Z,103211.44
2019-04-14T21:58:38.557Z,103209.23
2019-04-14T22:01:39.089Z,103210.94
2019-04-14T22:04:14.855Z,103217.42
2019-04-14T22:07:03.643Z,103216.03
2019-04-14T22:09:36.212Z,103215.53
2019-04-14T22:12:07.682Z,103216.37
2019-04-14T22:14:38.678Z,103214.56
2019-04-14T22:17:09.714Z,103217.13
2019-04-14T22:19:40.647Z,103217.50
2019-04-14T22:22:11.608Z,103220.45
2019-04-14T22:24:43.578Z,103212.56
2019-04-14T22:27:14.484Z,103214.23
2019-04-14T22:29:45.417Z,103219.36
2019-04-14T22:32:16.318Z,103219.36
2019-04-14T22:34:47.310Z,103222.80
2019-04-14T22:37:18.234Z,103219.77
2019-04-14T22:39:49.214Z,103223.59
2019-04-14T22:42:20.530Z,103224.41
2019-04-14T22:44:51.544Z,103224.41
2019-04-14T22:47:22.481Z,103228.75
2019-04-14T22:49:53.483Z,103222.16
2019-04-14T22:52:24.381Z,103222.16
2019-04-14T22:54:55.488Z,103222.55
2019-04-14T22:57:26.413Z,103220.77
2019-04-14T22:59:57.352Z,103208.91
2019-04-14T23:02:46.120Z,103208.91
2019-04-14T23:05:30.836Z,103220.65
2019-04-14T23:08:08.922Z,103215.36
2019-04-14T23:10:41.413Z,103218.77
2019-04-14T23:13:16.749Z,103217.86
2019-04-14T23:16:04.468Z,103227.81
2019-04-14T23:18:39.961Z,103226.92
2019-04-14T23:21:28.890Z,103223.83
2019-04-14T23:24:07.167Z,103226.33
2019-04-14T23:26:42.161Z,103220.58
2019-04-14T23:29:10.959Z,103220.58
2019-04-14T23:31:41.973Z,103227.16
2019-04-14T23:34:12.911Z,103225.80
2019-04-14T23:36:43.853Z,103227.86
2019-04-14T23:39:14.818Z,103227.86
2019-04-14T23:41:45.822Z,103232.17
2019-04-14T23:44:16.788Z,103226.02
2019-04-14T23:46:47.718Z,103231.17
2019-04-14T23:50:20.096Z,103231.16
2019-04-14T23:57:12.591Z,103233.98
2019-04-14T23:59:43.734Z,103228.22
